createdAt,value
2019-05-09T00:00:03.978Z,9.8
2019-05-09T00:05:03.627Z,9.6
2019-05-09T00:10:04.015Z,9.5
2019-05-09T00:15:04.500Z,9.6
2019-05-09T00:20:03.614Z,9.5
2019-05-09T00:25:03.414Z,9.3
2019-05-09T00:30:03.832Z,9.3
2019-05-09T00:35:03.853Z,9.3
2019-05-09T00:40:04.023Z,9.1
2019-05-09T00:45:04.157Z,9.1
2019-05-09T00:50:05.085Z,9.0
2019-05-09T00:55:03.953Z,9.0
2019-05-09T01:00:04.040Z,8.8
2019-05-09T01:05:04.218Z,8.8
2019-05-09T01:10:04.229Z,8.8
2019-05-09T01:15:03.479Z,8.8
2019-05-09T01:20:03.588Z,8.8
2019-05-09T01:25:04.198Z,8.8
2019-05-09T01:30:04.547Z,8.8
2019-05-09T01:35:03.900Z,8.8
2019-05-09T01:40:04.261Z,8.8
2019-05-09T01:45:03.742Z,8.6
2019-05-09T01:50:03.992Z,8.5
2019-05-09T01:55:03.681Z,8.5
2019-05-09T02:00:04.163Z,8.5
2019-05-09T02:05:04.125Z,8.3
2019-05-09T02:10:03.444Z,8.3
2019-05-09T02:15:03.910Z,8.1
2019-05-09T02:20:03.934Z,8.1
2019-05-09T02:25:04.305Z,8.1
2019-05-09T02:30:05.834Z,8.1
2019-05-09T02:35:04.993Z,8.1
2019-05-09T02:40:02.706Z,8.0
2019-05-09T02:45:03.267Z,8.0
2019-05-09T02:50:02.710Z,7.9
2019-05-09T02:55:03.224Z,7.6
2019-05-09T03:00:02.790Z,7.9
2019-05-09T03:05:03.235Z,7.6
2019-05-09T03:10:02.694Z,7.6
2019-05-09T03:15:03.131Z,7.5
2019-05-09T03:20:02.664Z,7.6
2019-05-09T03:25:03.221Z,7.6
2019-05-09T03:30:02.652Z,7.5
2019-05-09T03:35:03.178Z,7.6
2019-05-09T03:40:02.693Z,7.5
2019-05-09T03:45:03.161Z,7.4
2019-05-09T03:50:02.662Z,7.4
2019-05-09T03:55:03.205Z,7.4
2019-05-09T04:00:02.738Z,7.4
2019-05-09T04:05:03.283Z,7.1
2019-05-09T04:10:02.771Z,7.4
2019-05-09T04:15:03.245Z,7.5
2019-05-09T04:20:02.762Z,7.4
2019-05-09T04:25:03.316Z,7.4
2019-05-09T04:30:06.270Z,7.5
2019-05-09T04:35:03.273Z,7.5
2019-05-09T04:40:03.465Z,7.5
2019-05-09T04:45:03.678Z,7.5
2019-05-09T04:50:03.288Z,7.6
2019-05-09T04:55:02.735Z,7.9
2019-05-09T05:00:03.244Z,8.0
2019-05-09T05:05:02.746Z,8.1
2019-05-09T05:10:02.386Z,8.1
2019-05-09T05:15:02.924Z,8.3
2019-05-09T05:20:03.371Z,8.5
2019-05-09T05:25:02.804Z,8.8
2019-05-09T05:30:03.420Z,8.8
2019-05-09T05:35:02.047Z,9.0
2019-05-09T05:40:02.632Z,9.3
2019-05-09T05:45:03.127Z,9.3
2019-05-09T05:50:02.655Z,9.5
2019-05-09T05:55:03.238Z,9.6
2019-05-09T06:00:02.804Z,10.0
2019-05-09T06:05:03.314Z,10.1
2019-05-09T06:10:02.832Z,10.5
2019-05-09T06:15:03.369Z,10.6
2019-05-09T06:20:02.883Z,10.8
2019-05-09T06:25:03.410Z,11.1
2019-05-09T06:30:02.886Z,10.8
2019-05-09T06:35:03.365Z,11.1
2019-05-09T06:40:02.902Z,11.3
2019-05-09T06:45:03.330Z,11.3
2019-05-09T06:50:02.795Z,11.1
2019-05-09T06:55:03.295Z,11.3
2019-05-09T07:00:02.841Z,11.3
2019-05-09T07:05:03.392Z,11.3
2019-05-09T07:10:02.881Z,11.6
2019-05-09T07:15:03.431Z,12.0
2019-05-09T07:20:02.967Z,12.0
2019-05-09T07:25:06.547Z,12.5
2019-05-09T07:30:02.927Z,12.1
2019-05-09T07:35:03.461Z,12.1
2019-05-09T07:40:02.978Z,12.5
2019-05-09T07:45:02.504Z,12.8
2019-05-09T07:50:02.943Z,13.1
2019-05-09T07:55:03.388Z,13.5
2019-05-09T08:00:02.897Z,13.8
2019-05-09T08:05:03.447Z,13.6
2019-05-09T08:10:02.909Z,13.6
2019-05-09T08:15:13.397Z,14.1
2019-05-09T08:20:02.430Z,14.5
2019-05-09T08:25:02.869Z,14.8
2019-05-09T08:30:03.421Z,15.1
2019-05-09T08:35:02.965Z,14.5
2019-05-09T08:40:02.660Z,15.5
2019-05-09T08:45:03.214Z,15.8
2019-05-09T08:50:02.723Z,15.8
2019-05-09T08:55:03.206Z,16.0
2019-05-09T09:00:02.729Z,16.3
2019-05-09T09:05:03.237Z,15.3
2019-05-09T09:10:02.797Z,14.6
2019-05-09T09:15:02.557Z,14.8
2019-05-09T09:20:03.124Z,14.8
2019-05-09T09:25:02.654Z,14.6
2019-05-09T09:30:16.457Z,15.3
2019-05-09T09:35:03.249Z,15.1
2019-05-09T09:40:02.753Z,15.3
2019-05-09T09:45:03.304Z,17.7
2019-05-09T09:50:02.900Z,18.1
2019-05-09T09:55:03.461Z,17.2
2019-05-09T10:00:02.978Z,17.5
2019-05-09T10:05:02.421Z,17.5
2019-05-09T10:10:02.940Z,16.7
2019-05-09T10:15:03.435Z,15.8
2019-05-09T10:20:02.914Z,16.6
2019-05-09T10:25:03.353Z,16.2
2019-05-09T10:30:02.870Z,16.6
2019-05-09T10:35:03.455Z,16.3
2019-05-09T10:40:02.974Z,17.8
2019-05-09T10:45:02.461Z,17.3
2019-05-09T10:50:03.004Z,19.0
2019-05-09T10:55:02.528Z,18.2
2019-05-09T11:00:03.402Z,17.2
2019-05-09T11:05:03.103Z,18.2
2019-05-09T11:10:02.628Z,18.1
2019-05-09T11:15:03.164Z,18.2
2019-05-09T11:20:02.695Z,17.2
2019-05-09T11:25:03.302Z,17.1
2019-05-09T11:30:02.856Z,17.3
2019-05-09T11:35:03.330Z,18.2
2019-05-09T11:40:02.814Z,19.5
2019-05-09T11:45:03.266Z,19.1
2019-05-09T11:50:02.782Z,17.7
2019-05-09T11:55:03.389Z,18.2
2019-05-09T12:00:02.858Z,18.2
2019-05-09T12:05:03.435Z,19.7
2019-05-09T12:10:02.940Z,18.5
2019-05-09T12:15:02.540Z,17.8
2019-05-09T12:20:12.230Z,18.2
2019-05-09T12:25:02.658Z,17.1
2019-05-09T12:30:03.152Z,17.3
2019-05-09T12:35:02.848Z,17.0
2019-05-09T12:40:02.503Z,16.7
2019-05-09T12:45:03.062Z,16.6
2019-05-09T12:50:03.038Z,16.2
2019-05-09T12:55:02.701Z,16.6
2019-05-09T13:00:03.344Z,16.7
2019-05-09T13:05:02.863Z,16.7
2019-05-09T13:10:03.418Z,17.0
2019-05-09T13:15:02.854Z,16.7
2019-05-09T13:20:03.400Z,16.6
2019-05-09T13:25:03.135Z,16.2
2019-05-09T13:30:02.723Z,16.2
2019-05-09T13:35:03.169Z,16.0
2019-05-09T13:40:02.689Z,15.8
2019-05-09T13:45:03.148Z,16.0
2019-05-09T13:50:02.646Z,16.2
2019-05-09T13:55:03.148Z,16.2
2019-05-09T14:00:02.609Z,16.3
2019-05-09T14:05:03.352Z,16.3
2019-05-09T14:10:02.907Z,16.6
2019-05-09T14:15:03.444Z,16.7
2019-05-09T14:20:03.139Z,16.7
2019-05-09T14:25:02.681Z,17.0
2019-05-09T14:30:03.146Z,16.6
2019-05-09T14:35:03.051Z,16.6
2019-05-09T14:40:04.685Z,17.0
2019-05-09T14:45:02.821Z,16.7
2019-05-09T14:50:03.371Z,16.2
2019-05-09T14:55:02.901Z,17.1
2019-05-09T15:00:03.423Z,17.3
2019-05-09T15:05:03.734Z,16.7
2019-05-09T15:10:02.691Z,16.6
2019-05-09T15:15:03.226Z,16.2
2019-05-09T15:20:02.740Z,16.3
2019-05-09T15:25:03.292Z,16.6
2019-05-09T15:30:02.800Z,16.3
2019-05-09T15:35:03.255Z,16.7
2019-05-09T15:40:02.767Z,17.2
2019-05-09T15:45:03.233Z,20.2
2019-05-09T15:50:18.357Z,19.7
2019-05-09T15:55:01.819Z,18.1
2019-05-09T16:00:03.284Z,17.0
2019-05-09T16:05:02.861Z,17.0
2019-05-09T16:10:03.362Z,17.1
2019-05-09T16:15:02.930Z,16.6
2019-05-09T16:20:03.449Z,16.3
2019-05-09T16:25:02.988Z,16.6
2019-05-09T16:30:02.506Z,16.6
2019-05-09T16:35:03.065Z,17.1
2019-05-09T16:40:02.693Z,16.2
2019-05-09T16:45:03.237Z,15.5
2019-05-09T16:50:02.712Z,15.8
2019-05-09T16:55:03.170Z,16.2
2019-05-09T17:00:03.241Z,15.8
2019-05-09T17:05:03.059Z,15.6
2019-05-09T17:10:02.618Z,15.6
2019-05-09T17:15:03.171Z,15.8
2019-05-09T17:20:02.656Z,15.8
2019-05-09T17:25:03.126Z,15.6
2019-05-09T17:30:02.915Z,15.5
2019-05-09T17:35:03.470Z,15.5
2019-05-09T17:40:02.925Z,15.3
2019-05-09T17:45:03.784Z,15.3
2019-05-09T17:50:03.299Z,15.1
2019-05-09T17:55:02.846Z,15.0
2019-05-09T18:00:03.319Z,15.0
2019-05-09T18:05:02.775Z,14.5
2019-05-09T18:10:03.335Z,14.3
2019-05-09T18:15:02.945Z,14.1
2019-05-09T18:20:03.496Z,14.1
2019-05-09T18:25:03.137Z,14.0
2019-05-09T18:30:06.919Z,13.8
2019-05-09T18:35:03.487Z,13.6
2019-05-09T18:40:10.231Z,13.6
2019-05-09T18:45:03.015Z,13.6
2019-05-09T18:50:02.603Z,13.6
2019-05-09T18:55:03.150Z,13.6
2019-05-09T19:00:02.633Z,13.5
2019-05-09T19:05:03.215Z,13.1
2019-05-09T19:10:02.697Z,13.1
2019-05-09T19:15:03.142Z,12.8
2019-05-09T19:20:02.771Z,12.6
2019-05-09T19:25:03.433Z,12.6
2019-05-09T19:30:02.893Z,12.5
2019-05-09T19:35:03.574Z,12.5
2019-05-09T19:40:03.203Z,12.3
2019-05-09T19:45:03.142Z,12.1
2019-05-09T19:50:02.118Z,12.1
2019-05-09T19:55:02.690Z,12.0
2019-05-09T20:00:03.233Z,11.8
2019-05-09T20:05:02.750Z,12.0
2019-05-09T20:10:03.311Z,11.8
2019-05-09T20:15:02.823Z,11.8
2019-05-09T20:20:03.454Z,11.8
2019-05-09T20:25:02.986Z,12.0
2019-05-09T20:30:02.472Z,11.8
2019-05-09T20:35:03.096Z,11.8
2019-05-09T20:40:02.555Z,11.6
2019-05-09T20:45:03.026Z,11.6
2019-05-09T20:50:02.586Z,11.6
2019-05-09T20:55:03.190Z,11.8
2019-05-09T21:00:02.671Z,11.8
2019-05-09T21:05:03.243Z,11.8
2019-05-09T21:10:03.001Z,11.8
2019-05-09T21:15:02.647Z,11.8
2019-05-09T21:20:03.163Z,11.8
2019-05-09T21:25:02.719Z,11.8
2019-05-09T21:30:03.367Z,11.8
2019-05-09T21:35:02.795Z,11.8
2019-05-09T21:40:03.346Z,11.8
2019-05-09T21:45:02.817Z,11.8
2019-05-09T21:50:03.480Z,11.8
2019-05-09T21:55:02.979Z,11.8
2019-05-09T22:00:02.539Z,11.8
2019-05-09T22:05:03.057Z,11.8
2019-05-09T22:10:02.585Z,11.8
2019-05-09T22:15:03.996Z,11.8
2019-05-09T22:20:02.642Z,11.8
2019-05-09T22:25:03.191Z,11.6
2019-05-09T22:30:02.669Z,11.6
2019-05-09T22:35:03.128Z,11.6
2019-05-09T22:40:02.676Z,11.6
2019-05-09T22:45:03.529Z,11.6
2019-05-09T22:50:02.426Z,11.6
2019-05-09T22:55:02.902Z,11.6
2019-05-09T23:00:07.762Z,11.3
2019-05-09T23:05:02.872Z,11.1
2019-05-09T23:10:03.452Z,11.1
2019-05-09T23:15:03.052Z,11.0
2019-05-09T23:20:02.632Z,10.8
2019-05-09T23:25:03.173Z,10.8
2019-05-09T23:30:02.618Z,10.6
2019-05-09T23:35:03.187Z,10.6
2019-05-09T23:40:02.650Z,10.6
2019-05-09T23:45:03.107Z,10.5
2019-05-09T23:50:02.616Z,10.3
2019-05-09T23:55:03.174Z,10.3
